NCAR-RAP Real-Time Weather Data

Output produced by METARs form (08 May 2021  02:08 UTC)
found at http://weather.rap.ucar.edu/surface/
 
KJFK 080151Z 10009KT 10SM FEW020 BKN150 OVC250 11/06 A2989 RMK AO2 SLP122 T01110061
KJFK 080051Z 10008KT 10SM FEW020 SCT120 BKN200 BKN250 12/06 A2987 RMK AO2 SLP115 T01170061
KJFK 072351Z 10011KT 10SM FEW020 FEW050 BKN120 BKN250 12/08 A2987 RMK AO2 SLP115 T01170083 10161 20117 55000
KJFK 072251Z 11011KT 10SM FEW050 BKN130 BKN250 12/08 A2987 RMK AO2 SLP114 T01220078
KJFK 072151Z 14010KT 10SM FEW050 BKN150 BKN250 13/08 A2987 RMK AO2 SLP114 T01330078
KJFK 072051Z 13013KT 10SM FEW060 SCT140 SCT170 BKN250 13/07 A2987 RMK AO2 SLP115 T01330072 56006
KJFK 071951Z 15011KT 10SM FEW060 BKN140 BKN200 BKN250 14/04 A2987 RMK AO2 SLP115 T01440044
KJFK 071851Z 22008KT 10SM FEW060 SCT210 BKN250 16/04 A2988 RMK AO2 SLP116 T01560039
KJFK 071751Z 16006KT 10SM FEW060 SCT180 BKN250 15/06 A2989 RMK AO2 SLP121 T01500056 10167 20122 58015
KJFK 071651Z 13010KT 10SM FEW060 FEW160 BKN230 16/06 A2991 RMK AO2 SLP126 T01560061
KJFK 071551Z 14010KT 10SM FEW160 BKN250 16/06 A2992 RMK AO2 SLP132 T01560056
KJFK 071451Z 17006KT 10SM FEW160 BKN250 16/02 A2994 RMK AO2 SLP137 T01610022 53001
KJFK 071351Z 12005KT 10SM BKN250 15/01 A2993 RMK AO2 SLP133 T01500011
KJFK 071251Z 05010KT 10SM SCT250 14/01 A2993 RMK AO2 SLP134 T01440011
KJFK 071151Z 06008KT 10SM FEW250 12/01 A2993 RMK AO2 SLP135 T01220011 10122 20089 55000
KJFK 071051Z 02008KT 10SM FEW180 SCT250 11/01 A2993 RMK AO2 SLP133 T01060006